Countyline, North Carolina
Current Conditions -  °F | °C
As of 5:55 AM on Wednesday 26 Nov 2014 (Local Time) from KRUQ Reporting Station
Moderate Rain Moderate Rain  
Wind Chill: 39°   Ceiling: 1800
Heat Index: 42°   Visibility: 7mi
Dew Point: 42°   Wind: 6mph
Humidity: 97%   Direction: 20°NNE
Pressure: 29.99"   Gusts: NA
Location:  35.9632°N, 80.7532°W
Report Text: KRUQ 261055Z AUTO 02005KT 7SM RA SCT005 SCT009 BKN018 06/05 A2999 RMK AO2 P0014 T00580053
Loading
Personal Weather Stations






























Interactive Weather Map New forecast layout! Learn more

10-Day Weather Forecast

Advertisements
Track Severe Weather on mobile